createdAt,value
2023-01-15T00:02:08.436Z,101.70
2023-01-15T00:04:36.539Z,98.27
2023-01-15T00:07:04.621Z,104.05
2023-01-15T00:09:32.673Z,93.00
2023-01-15T00:12:00.954Z,103.32
2023-01-15T00:14:29.062Z,99.70
2023-01-15T00:16:56.655Z,94.50
2023-01-15T00:19:24.683Z,98.68
2023-01-15T00:21:54.145Z,92.32
2023-01-15T00:24:54.713Z,92.70
2023-01-15T00:27:40.359Z,90.03
2023-01-15T00:30:13.949Z,88.03
2023-01-15T00:32:43.208Z,84.00
2023-01-15T00:37:44.566Z,84.25
2023-01-15T00:40:14.105Z,79.45
2023-01-15T00:42:41.985Z,80.85
2023-01-15T00:45:12.410Z,86.75
2023-01-15T00:47:43.286Z,79.13
2023-01-15T00:50:15.299Z,87.32
2023-01-15T00:52:43.193Z,73.78
2023-01-15T00:55:11.137Z,74.40
2023-01-15T00:57:38.698Z,76.43
2023-01-15T01:00:07.580Z,81.63
2023-01-15T01:02:35.537Z,78.40
2023-01-15T01:05:03.743Z,86.30
2023-01-15T01:07:31.416Z,81.72
2023-01-15T01:09:59.356Z,80.43
2023-01-15T01:12:27.075Z,81.32
2023-01-15T01:14:56.231Z,79.65
2023-01-15T01:17:24.861Z,84.35
2023-01-15T01:19:52.764Z,89.25
2023-01-15T01:22:20.461Z,78.03
2023-01-15T01:24:48.680Z,78.35
2023-01-15T01:27:18.722Z,76.40
2023-01-15T01:29:46.859Z,81.32
2023-01-15T01:32:14.481Z,74.88
2023-01-15T01:34:42.529Z,72.88
2023-01-15T01:37:10.142Z,71.95
2023-01-15T01:39:37.956Z,74.45
2023-01-15T01:42:16.664Z,71.63
2023-01-15T01:44:44.489Z,69.30
2023-01-15T01:47:22.885Z,69.95
2023-01-15T01:49:58.411Z,70.50
2023-01-15T01:52:32.663Z,66.07
2023-01-15T01:55:02.125Z,67.15
2023-01-15T01:57:30.858Z,72.32
2023-01-15T02:00:01.425Z,71.60
2023-01-15T02:02:29.249Z,68.55
2023-01-15T02:04:57.342Z,64.15
2023-01-15T02:07:25.991Z,71.13
2023-01-15T02:09:53.940Z,64.53
2023-01-15T02:12:39.353Z,67.88
2023-01-15T02:15:26.603Z,69.70
2023-01-15T02:17:54.056Z,69.50
2023-01-15T02:20:55.715Z,69.80
2023-01-15T02:23:45.945Z,64.75
2023-01-15T02:26:46.349Z,66.25
2023-01-15T02:29:23.354Z,64.55
2023-01-15T02:31:52.993Z,64.03
2023-01-15T02:34:36.449Z,61.45
2023-01-15T02:37:18.254Z,62.88
2023-01-15T02:39:49.100Z,66.82
2023-01-15T02:42:21.788Z,68.85
2023-01-15T02:44:53.785Z,64.28
2023-01-15T02:47:29.325Z,63.25
2023-01-15T02:50:05.250Z,61.60
2023-01-15T02:52:49.160Z,59.83
2023-01-15T02:55:32.827Z,58.17
2023-01-15T02:58:06.239Z,53.05
2023-01-15T03:00:42.209Z,52.30
2023-01-15T03:03:16.518Z,54.80
2023-01-15T03:05:54.354Z,55.10
2023-01-15T03:08:22.585Z,53.38
2023-01-15T03:11:15.810Z,50.08
2023-01-15T03:14:19.065Z,55.20
2023-01-15T03:16:57.310Z,52.38
2023-01-15T03:22:47.463Z,57.47
2023-01-15T03:25:29.748Z,60.97
2023-01-15T03:28:03.061Z,57.50
2023-01-15T03:30:31.185Z,52.70
2023-01-15T03:32:58.892Z,53.60
2023-01-15T03:35:57.689Z,54.22
2023-01-15T03:38:41.301Z,56.80
2023-01-15T03:41:48.517Z,50.45
2023-01-15T03:44:27.976Z,53.70
2023-01-15T03:47:27.345Z,57.58
2023-01-15T03:50:09.992Z,53.70
2023-01-15T03:52:51.238Z,53.67
2023-01-15T03:55:32.641Z,56.13
2023-01-15T03:58:50.950Z,53.60
2023-01-15T04:01:38.711Z,56.00
2023-01-15T04:04:07.539Z,54.13
2023-01-15T04:06:40.179Z,49.10
2023-01-15T04:09:10.774Z,47.47
2023-01-15T04:11:38.733Z,49.83
2023-01-15T04:14:11.021Z,46.78
2023-01-15T04:16:45.089Z,51.08
2023-01-15T04:19:14.345Z,58.40
2023-01-15T04:21:54.856Z,54.45
2023-01-15T04:24:22.937Z,54.13
2023-01-15T04:26:50.983Z,59.80
2023-01-15T04:29:19.601Z,58.13
2023-01-15T04:31:47.478Z,59.17
2023-01-15T04:34:15.346Z,55.10
2023-01-15T04:36:46.625Z,57.47
2023-01-15T04:39:14.549Z,59.50
2023-01-15T04:42:00.732Z,61.47
2023-01-15T04:44:29.446Z,60.95
2023-01-15T04:46:57.623Z,59.83
2023-01-15T04:49:25.640Z,59.40
2023-01-15T04:51:53.211Z,54.85
2023-01-15T04:54:22.608Z,58.38
2023-01-15T04:56:54.305Z,54.60
2023-01-15T04:59:26.374Z,59.33
2023-01-15T05:02:03.567Z,60.78
2023-01-15T05:04:32.466Z,63.30
2023-01-15T05:07:02.975Z,61.25
2023-01-15T05:09:31.012Z,65.30
2023-01-15T05:11:58.585Z,66.15
2023-01-15T05:14:26.613Z,68.82
2023-01-15T05:16:54.131Z,67.93
2023-01-15T05:19:21.970Z,62.58
2023-01-15T05:21:49.825Z,67.65
2023-01-15T05:24:19.506Z,68.25
2023-01-15T05:29:14.979Z,63.15
2023-01-15T05:31:45.018Z,59.80
2023-01-15T05:34:13.620Z,59.25
2023-01-15T05:36:41.820Z,65.20
2023-01-15T05:39:10.438Z,57.40
2023-01-15T05:41:50.393Z,59.10
2023-01-15T05:44:23.279Z,60.80
2023-01-15T05:46:53.726Z,61.10
2023-01-15T05:49:25.477Z,57.10
2023-01-15T05:51:54.438Z,57.33
2023-01-15T05:54:26.220Z,56.40
2023-01-15T05:56:54.679Z,56.88
2023-01-15T05:59:26.526Z,59.08
2023-01-15T06:01:54.587Z,55.88
2023-01-15T06:04:25.070Z,60.25
2023-01-15T06:06:56.607Z,62.55
2023-01-15T06:09:27.879Z,54.25
2023-01-15T06:11:56.386Z,64.32
2023-01-15T06:14:24.693Z,57.95
2023-01-15T06:16:52.210Z,58.20
2023-01-15T06:19:20.540Z,64.47
2023-01-15T06:21:49.092Z,56.97
2023-01-15T06:24:18.118Z,65.22
2023-01-15T06:26:45.988Z,65.80
2023-01-15T06:29:17.623Z,70.15
2023-01-15T06:31:45.300Z,60.92
2023-01-15T06:34:13.166Z,64.13
2023-01-15T06:36:40.704Z,64.10
2023-01-15T06:39:08.560Z,66.70
2023-01-15T06:41:54.880Z,61.78
2023-01-15T06:44:41.303Z,61.15
2023-01-15T06:47:23.670Z,57.60
2023-01-15T06:49:55.967Z,60.38
2023-01-15T06:52:26.681Z,63.10
2023-01-15T06:54:55.008Z,60.53
2023-01-15T06:57:23.040Z,61.85
2023-01-15T06:59:51.603Z,53.75
2023-01-15T07:02:19.773Z,55.10
2023-01-15T07:04:49.167Z,53.43
2023-01-15T07:07:19.460Z,53.70
2023-01-15T07:09:47.818Z,52.67
2023-01-15T07:12:15.537Z,58.45
2023-01-15T07:14:44.248Z,54.38
2023-01-15T07:17:12.213Z,56.47
2023-01-15T07:19:40.327Z,50.15
2023-01-15T07:22:09.654Z,53.95
2023-01-15T07:24:37.834Z,49.40
2023-01-15T07:27:06.293Z,53.00
2023-01-15T07:29:34.097Z,47.13
2023-01-15T07:32:01.625Z,55.85
2023-01-15T07:34:29.471Z,53.70
2023-01-15T07:36:57.048Z,55.40
2023-01-15T07:39:24.923Z,55.55
2023-01-15T07:42:11.099Z,52.67
2023-01-15T07:44:57.939Z,60.97
2023-01-15T07:47:45.272Z,56.50
2023-01-15T07:50:18.313Z,50.97
2023-01-15T07:52:46.542Z,57.22
2023-01-15T07:55:14.963Z,56.08
2023-01-15T07:57:43.487Z,54.33
2023-01-15T08:00:16.299Z,42.03
2023-01-15T08:02:46.106Z,53.85
2023-01-15T08:05:14.159Z,58.15
2023-01-15T08:07:42.965Z,63.17
2023-01-15T08:10:13.072Z,54.20
2023-01-15T08:12:59.883Z,59.45
2023-01-15T08:15:35.082Z,52.83
2023-01-15T08:18:02.650Z,55.95
2023-01-15T08:20:30.502Z,59.65
2023-01-15T08:23:00.649Z,57.53
2023-01-15T08:25:28.654Z,66.90
2023-01-15T08:28:00.261Z,67.80
2023-01-15T08:30:28.190Z,62.85
2023-01-15T08:33:02.367Z,59.63
2023-01-15T08:35:31.370Z,63.42
2023-01-15T08:37:59.032Z,63.97
2023-01-15T08:40:27.216Z,62.85
2023-01-15T08:42:56.540Z,64.40
2023-01-15T08:45:25.004Z,62.78
2023-01-15T08:47:57.889Z,58.90
2023-01-15T08:50:25.853Z,60.03
2023-01-15T08:52:53.579Z,61.65
2023-01-15T08:55:21.589Z,67.05
2023-01-15T08:57:49.291Z,57.75
2023-01-15T09:00:17.971Z,59.08
2023-01-15T09:02:45.574Z,55.95
2023-01-15T09:05:13.601Z,53.92
2023-01-15T09:07:41.148Z,50.05
2023-01-15T09:10:10.200Z,48.63
2023-01-15T09:12:37.863Z,54.30
2023-01-15T09:15:06.598Z,55.28
2023-01-15T09:17:35.575Z,48.42
2023-01-15T09:20:04.833Z,47.05
2023-01-15T09:22:32.449Z,46.78
2023-01-15T09:25:00.865Z,48.85
2023-01-15T09:27:29.370Z,48.10
2023-01-15T09:29:57.673Z,42.58
2023-01-15T09:32:25.947Z,49.92
2023-01-15T09:34:53.878Z,41.10
2023-01-15T09:37:21.477Z,49.45
2023-01-15T09:39:49.636Z,41.30
2023-01-15T09:42:48.924Z,45.42
2023-01-15T09:45:47.962Z,36.15
2023-01-15T09:48:41.378Z,36.08
2023-01-15T09:51:37.180Z,37.15
2023-01-15T09:54:34.920Z,39.20
2023-01-15T09:57:03.964Z,38.42
2023-01-15T09:59:39.956Z,34.20
2023-01-15T10:02:36.927Z,31.80
2023-01-15T10:05:26.990Z,30.33
2023-01-15T10:08:05.688Z,29.63
2023-01-15T10:10:48.795Z,33.88
2023-01-15T10:13:56.337Z,31.02
2023-01-15T10:16:27.803Z,31.63
2023-01-15T10:18:58.356Z,26.70
2023-01-15T10:21:54.758Z,32.88
2023-01-15T10:24:40.495Z,32.35
2023-01-15T10:27:22.801Z,27.10
2023-01-15T10:30:06.519Z,26.83
2023-01-15T10:33:07.845Z,32.75
2023-01-15T10:35:56.921Z,32.95
2023-01-15T10:38:43.831Z,29.00
2023-01-15T10:41:43.446Z,31.50
2023-01-15T10:44:57.921Z,24.13
2023-01-15T10:47:36.877Z,24.15
2023-01-15T10:50:18.454Z,25.00
2023-01-15T10:53:07.482Z,23.15
2023-01-15T10:56:00.128Z,25.25
2023-01-15T10:58:55.133Z,26.92
2023-01-15T11:01:26.753Z,24.35
2023-01-15T11:03:55.265Z,28.10
2023-01-15T11:06:25.860Z,27.98
2023-01-15T11:09:09.673Z,31.00
2023-01-15T11:12:05.885Z,30.25
2023-01-15T11:14:58.829Z,22.98
2023-01-15T11:18:04.367Z,26.65
2023-01-15T11:20:45.362Z,25.40
2023-01-15T11:23:18.345Z,26.85
2023-01-15T11:25:52.377Z,24.15
2023-01-15T11:28:43.140Z,29.40
2023-01-15T11:31:14.057Z,24.45
2023-01-15T11:34:06.249Z,20.90
2023-01-15T11:36:34.616Z,23.55
2023-01-15T11:39:02.317Z,25.42
2023-01-15T11:41:54.452Z,20.40
2023-01-15T11:44:42.205Z,23.42
2023-01-15T11:47:36.156Z,23.38
2023-01-15T11:50:37.863Z,28.00
2023-01-15T11:53:18.677Z,21.05
2023-01-15T11:56:03.611Z,21.05
2023-01-15T11:59:02.629Z,22.55
2023-01-15T12:01:38.688Z,20.88
2023-01-15T12:04:30.833Z,19.13
2023-01-15T12:06:59.526Z,17.67
2023-01-15T12:10:00.233Z,18.13
2023-01-15T12:12:42.445Z,17.65
2023-01-15T12:15:29.712Z,17.42
2023-01-15T12:18:48.183Z,21.23
2023-01-15T12:22:04.828Z,20.95
2023-01-15T12:25:16.887Z,20.98
2023-01-15T12:27:52.238Z,20.13
2023-01-15T12:30:50.244Z,19.52
2023-01-15T12:33:59.586Z,20.17
2023-01-15T12:36:53.562Z,16.52
2023-01-15T12:39:36.850Z,19.05
2023-01-15T12:42:29.962Z,19.40
2023-01-15T12:45:30.416Z,17.10
2023-01-15T12:48:10.646Z,21.98
2023-01-15T12:50:46.848Z,19.25
2023-01-15T12:53:34.509Z,24.30
2023-01-15T12:56:19.871Z,17.58
2023-01-15T12:59:04.816Z,17.75
2023-01-15T13:02:05.261Z,19.65
2023-01-15T13:04:41.796Z,24.10
2023-01-15T13:07:40.108Z,22.27
2023-01-15T13:10:20.147Z,33.53
2023-01-15T13:12:48.528Z,37.85
2023-01-15T13:15:20.155Z,32.65
2023-01-15T13:18:16.678Z,31.67
2023-01-15T13:20:52.683Z,32.05
2023-01-15T13:24:15.941Z,31.40
2023-01-15T13:26:57.368Z,23.38
2023-01-15T13:30:08.036Z,23.33
2023-01-15T13:32:59.494Z,19.98
2023-01-15T13:35:37.203Z,20.02
2023-01-15T13:38:16.397Z,24.92
2023-01-15T13:40:53.187Z,23.40
2023-01-15T13:43:40.520Z,21.05
2023-01-15T13:46:13.180Z,20.80
2023-01-15T13:48:47.864Z,21.30
2023-01-15T13:51:37.663Z,19.80
2023-01-15T13:54:13.672Z,24.42
2023-01-15T13:56:43.954Z,22.25
2023-01-15T13:59:45.248Z,20.25
2023-01-15T14:02:27.190Z,24.70
2023-01-15T14:04:55.531Z,22.50
2023-01-15T14:07:37.169Z,24.83
2023-01-15T14:10:27.069Z,22.40
2023-01-15T14:13:32.126Z,22.38
2023-01-15T14:16:34.221Z,29.88
2023-01-15T14:19:43.386Z,25.67
2023-01-15T14:22:48.228Z,33.53
2023-01-15T14:25:55.023Z,23.30
2023-01-15T14:28:53.204Z,27.00
2023-01-15T14:31:38.860Z,24.27
2023-01-15T14:34:18.605Z,28.40
2023-01-15T14:37:00.913Z,35.30
2023-01-15T14:39:59.688Z,34.25
2023-01-15T14:42:58.815Z,34.78
2023-01-15T14:45:36.898Z,33.20
2023-01-15T14:48:40.523Z,37.65
2023-01-15T14:51:17.484Z,38.35
2023-01-15T14:53:55.895Z,41.45
2023-01-15T14:56:34.666Z,43.95
2023-01-15T14:59:35.352Z,36.67
2023-01-15T15:02:27.926Z,41.88
2023-01-15T15:04:58.338Z,35.22
2023-01-15T15:07:41.719Z,36.20
2023-01-15T15:10:39.822Z,40.65
2023-01-15T15:13:37.258Z,50.78
2023-01-15T15:16:28.535Z,47.92
2023-01-15T15:19:17.165Z,49.20
2023-01-15T15:21:48.346Z,48.10
2023-01-15T15:24:42.205Z,45.17
2023-01-15T15:27:22.071Z,55.45
2023-01-15T15:29:51.236Z,46.58
2023-01-15T15:32:23.582Z,53.80
2023-01-15T15:34:53.852Z,43.20
2023-01-15T15:37:28.294Z,48.90
2023-01-15T15:40:19.580Z,51.45
2023-01-15T15:43:36.018Z,54.33
2023-01-15T15:46:38.896Z,43.65
2023-01-15T15:49:09.951Z,42.90
2023-01-15T15:51:49.686Z,35.63
2023-01-15T15:54:27.702Z,45.45
2023-01-15T15:57:17.474Z,44.20
2023-01-15T15:59:53.852Z,43.92
2023-01-15T16:02:26.105Z,50.42
2023-01-15T16:04:58.999Z,42.83
2023-01-15T16:07:29.843Z,44.90
2023-01-15T16:10:14.739Z,44.92
2023-01-15T16:12:56.525Z,49.92
2023-01-15T16:15:32.937Z,43.70
2023-01-15T16:18:02.899Z,43.80
2023-01-15T16:20:33.243Z,41.03
2023-01-15T16:23:04.889Z,47.45
2023-01-15T16:25:43.208Z,53.20
2023-01-15T16:28:26.898Z,46.75
2023-01-15T16:31:05.128Z,51.80
2023-01-15T16:33:32.759Z,42.65
2023-01-15T16:36:05.160Z,35.75
2023-01-15T16:38:42.486Z,47.22
2023-01-15T16:41:34.640Z,45.67
2023-01-15T16:44:06.709Z,45.42
2023-01-15T16:46:48.291Z,42.00
2023-01-15T16:49:28.006Z,48.47
2023-01-15T16:51:58.831Z,37.88
2023-01-15T16:54:32.222Z,44.10
2023-01-15T16:57:32.365Z,40.53
2023-01-15T17:00:06.523Z,41.85
2023-01-15T17:02:46.601Z,41.75
2023-01-15T17:05:23.116Z,46.22
2023-01-15T17:07:54.534Z,42.03
2023-01-15T17:10:26.730Z,41.83
2023-01-15T17:12:58.852Z,46.30
2023-01-15T17:15:26.306Z,46.80
2023-01-15T17:17:57.214Z,38.85
2023-01-15T17:20:27.943Z,45.38
2023-01-15T17:22:56.710Z,45.53
2023-01-15T17:25:30.959Z,44.72
2023-01-15T17:28:00.852Z,43.78
2023-01-15T17:30:34.783Z,49.00
2023-01-15T17:33:11.884Z,45.05
2023-01-15T17:35:48.734Z,48.92
2023-01-15T17:38:18.676Z,53.40
2023-01-15T17:40:46.810Z,49.20
2023-01-15T17:43:16.107Z,46.42
2023-01-15T17:46:23.395Z,48.97
2023-01-15T17:49:09.713Z,44.28
2023-01-15T17:51:50.785Z,46.10
2023-01-15T17:54:45.174Z,45.65
2023-01-15T17:57:41.291Z,49.95
2023-01-15T18:00:40.703Z,41.72
2023-01-15T18:03:42.109Z,45.63
2023-01-15T18:06:24.499Z,49.75
2023-01-15T18:09:01.034Z,46.10
2023-01-15T18:11:29.251Z,49.92
2023-01-15T18:13:57.180Z,47.97
2023-01-15T18:16:26.462Z,51.72
2023-01-15T18:18:54.510Z,57.80
2023-01-15T18:21:23.045Z,54.20
2023-01-15T18:23:50.630Z,54.22
2023-01-15T18:26:18.625Z,51.40
2023-01-15T18:28:47.056Z,51.58
2023-01-15T18:31:15.153Z,58.90
2023-01-15T18:33:42.797Z,60.60
2023-01-15T18:36:13.749Z,61.95
2023-01-15T18:38:45.129Z,62.63
2023-01-15T18:41:36.025Z,56.00
2023-01-15T18:44:41.391Z,58.08
2023-01-15T18:47:17.653Z,61.03
2023-01-15T18:49:46.833Z,57.53
2023-01-15T18:55:53.332Z,54.45
2023-01-15T18:58:26.939Z,54.75
2023-01-15T19:00:58.247Z,50.95
2023-01-15T19:03:26.646Z,50.55
2023-01-15T19:05:54.320Z,56.80
2023-01-15T19:08:40.545Z,49.65
2023-01-15T19:11:55.103Z,48.00
2023-01-15T19:15:07.236Z,52.17
2023-01-15T19:18:02.235Z,55.60
2023-01-15T19:20:31.546Z,58.13
2023-01-15T19:22:59.226Z,56.97
2023-01-15T19:25:43.237Z,50.75
2023-01-15T19:28:17.982Z,53.80
2023-01-15T19:31:06.997Z,62.75
2023-01-15T19:33:35.991Z,59.38
2023-01-15T19:36:05.070Z,56.92
2023-01-15T19:38:38.808Z,56.45
2023-01-15T19:41:30.630Z,56.45
2023-01-15T19:44:16.809Z,53.35
2023-01-15T19:47:04.878Z,54.85
2023-01-15T19:49:54.986Z,58.35
2023-01-15T19:52:35.180Z,55.95
2023-01-15T19:55:11.854Z,55.75
2023-01-15T19:57:42.143Z,58.03
2023-01-15T20:00:17.362Z,54.08
2023-01-15T20:02:46.489Z,56.20
2023-01-15T20:05:16.416Z,48.03
2023-01-15T20:07:44.560Z,55.85
2023-01-15T20:10:16.463Z,48.38
2023-01-15T20:13:03.704Z,58.15
2023-01-15T20:15:32.506Z,62.38
2023-01-15T20:18:00.408Z,51.22
2023-01-15T20:20:28.100Z,47.13
2023-01-15T20:22:57.977Z,47.22
2023-01-15T20:25:27.541Z,49.20
2023-01-15T20:27:58.085Z,49.97
2023-01-15T20:30:26.869Z,45.20
2023-01-15T20:32:59.968Z,44.03
2023-01-15T20:35:33.653Z,46.78
2023-01-15T20:38:01.779Z,48.90
2023-01-15T20:40:29.777Z,45.28
2023-01-15T20:43:16.518Z,51.80
2023-01-15T20:45:44.207Z,54.97
2023-01-15T20:48:13.451Z,48.72
2023-01-15T20:51:01.046Z,53.03
2023-01-15T20:53:34.637Z,48.63
2023-01-15T20:56:04.854Z,44.88
2023-01-15T20:58:33.012Z,48.10
2023-01-15T21:01:07.096Z,42.22
2023-01-15T21:03:35.864Z,48.97
2023-01-15T21:06:05.189Z,53.20
2023-01-15T21:08:35.099Z,56.60
2023-01-15T21:11:02.997Z,50.35
2023-01-15T21:13:31.340Z,49.33
2023-01-15T21:16:05.296Z,47.90
2023-01-15T21:18:39.081Z,53.15
2023-01-15T21:21:15.498Z,52.75
2023-01-15T21:23:45.784Z,51.97
2023-01-15T21:26:15.402Z,59.97
2023-01-15T21:28:44.825Z,51.80
2023-01-15T21:31:14.770Z,50.97
2023-01-15T21:33:42.790Z,41.60
2023-01-15T21:36:14.330Z,44.28
2023-01-15T21:38:42.195Z,41.70
2023-01-15T21:41:14.646Z,43.53
2023-01-15T21:44:02.401Z,37.65
2023-01-15T21:46:30.328Z,36.08
2023-01-15T21:48:59.495Z,39.45
2023-01-15T21:51:27.429Z,37.67
2023-01-15T21:54:00.067Z,36.97
2023-01-15T21:56:28.061Z,34.20
2023-01-15T21:58:57.079Z,39.92
2023-01-15T22:01:32.687Z,37.55
2023-01-15T22:04:15.186Z,37.92
2023-01-15T22:06:42.912Z,48.55
2023-01-15T22:09:11.918Z,35.30
2023-01-15T22:11:45.704Z,48.80
2023-01-15T22:14:26.452Z,40.63
2023-01-15T22:16:56.293Z,33.67
2023-01-15T22:19:28.761Z,34.75
2023-01-15T22:22:08.414Z,32.38
2023-01-15T22:24:39.607Z,35.63
2023-01-15T22:27:13.649Z,28.02
2023-01-15T22:29:43.375Z,28.65
2023-01-15T22:32:13.626Z,26.48
2023-01-15T22:34:43.290Z,33.70
2023-01-15T22:37:18.170Z,28.48
2023-01-15T22:39:50.600Z,27.10
2023-01-15T22:42:32.008Z,28.98
2023-01-15T22:45:04.995Z,27.88
2023-01-15T22:47:34.425Z,34.03
2023-01-15T22:50:10.204Z,28.38
2023-01-15T22:52:41.697Z,28.33
2023-01-15T22:55:12.680Z,26.80
2023-01-15T22:57:45.494Z,26.45
2023-01-15T23:00:18.165Z,25.67
2023-01-15T23:03:05.920Z,28.25
2023-01-15T23:05:39.207Z,32.53
2023-01-15T23:08:07.873Z,31.95
2023-01-15T23:10:35.828Z,28.40
2023-01-15T23:13:03.420Z,29.00
2023-01-15T23:15:31.351Z,31.13
2023-01-15T23:17:59.027Z,26.60
2023-01-15T23:20:26.908Z,31.75
2023-01-15T23:22:54.784Z,29.45
2023-01-15T23:25:23.091Z,31.60
2023-01-15T23:27:50.708Z,31.77
2023-01-15T23:30:18.986Z,35.03
2023-01-15T23:32:46.594Z,30.88
2023-01-15T23:35:14.496Z,31.45
2023-01-15T23:37:42.096Z,32.90
2023-01-15T23:40:10.926Z,34.55
2023-01-15T23:42:57.161Z,33.17
2023-01-15T23:45:43.706Z,32.70
2023-01-15T23:48:11.345Z,30.77
2023-01-15T23:50:39.226Z,28.88
2023-01-15T23:53:06.769Z,32.22
2023-01-15T23:55:34.976Z,27.90
2023-01-15T23:58:03.854Z,32.63
